createdAt,value
2022-11-26T00:01:02.705Z,6.10
2022-11-26T00:03:30.024Z,5.60
2022-11-26T00:05:57.318Z,4.80
2022-11-26T00:08:30.006Z,5.93
2022-11-26T00:10:57.198Z,4.70
2022-11-26T00:13:25.254Z,4.10
2022-11-26T00:15:52.587Z,4.60
2022-11-26T00:18:19.873Z,5.67
2022-11-26T00:20:47.285Z,5.30
2022-11-26T00:23:19.126Z,5.53
2022-11-26T00:25:46.911Z,5.57
2022-11-26T00:28:25.999Z,5.70
2022-11-26T00:30:53.526Z,5.33
2022-11-26T00:33:20.646Z,5.30
2022-11-26T00:35:47.770Z,5.10
2022-11-26T00:38:16.266Z,6.13
2022-11-26T00:40:43.419Z,5.23
2022-11-26T00:43:13.521Z,5.03
2022-11-26T00:45:40.783Z,4.80
2022-11-26T00:48:07.891Z,6.13
2022-11-26T00:50:37.970Z,6.23
2022-11-26T00:53:05.116Z,5.90
2022-11-26T00:55:36.050Z,5.03
2022-11-26T00:58:03.330Z,5.17
2022-11-26T01:00:31.044Z,5.77
2022-11-26T01:02:58.261Z,5.97
2022-11-26T01:05:25.900Z,6.20
2022-11-26T01:07:53.228Z,5.47
2022-11-26T01:10:25.336Z,5.33
2022-11-26T01:12:52.681Z,5.03
2022-11-26T01:15:20.343Z,5.00
2022-11-26T01:17:47.582Z,4.73
2022-11-26T01:20:25.334Z,5.10
2022-11-26T01:22:52.983Z,4.70
2022-11-26T01:25:20.106Z,5.10
2022-11-26T01:27:47.487Z,4.27
2022-11-26T01:30:19.834Z,5.03
2022-11-26T01:32:47.268Z,5.30
2022-11-26T01:35:14.439Z,5.57
2022-11-26T01:37:41.634Z,5.10
2022-11-26T01:40:27.247Z,5.23
2022-11-26T01:42:56.517Z,5.17
2022-11-26T01:45:23.726Z,5.33
2022-11-26T01:47:51.088Z,5.40
2022-11-26T01:50:36.376Z,5.30
2022-11-26T01:53:03.478Z,5.30
2022-11-26T01:55:32.903Z,5.00
2022-11-26T01:58:00.050Z,5.20
2022-11-26T02:00:27.194Z,5.10
2022-11-26T02:02:54.348Z,4.80
2022-11-26T02:05:23.490Z,5.00
2022-11-26T02:07:50.861Z,4.80
2022-11-26T02:10:18.078Z,5.97
2022-11-26T02:12:45.246Z,5.07
2022-11-26T02:15:12.485Z,5.10
2022-11-26T02:17:44.572Z,5.20
2022-11-26T02:20:27.049Z,6.03
2022-11-26T02:23:12.966Z,4.00
2022-11-26T02:25:46.145Z,5.03
2022-11-26T02:28:17.506Z,4.97
2022-11-26T02:30:46.373Z,4.43
2022-11-26T02:33:17.063Z,6.77
2022-11-26T02:35:48.383Z,5.97
2022-11-26T02:38:22.486Z,6.00
2022-11-26T02:40:49.680Z,6.20
2022-11-26T02:43:16.836Z,7.30
2022-11-26T02:45:45.140Z,6.50
2022-11-26T02:48:13.960Z,6.17
2022-11-26T02:50:46.790Z,6.03
2022-11-26T02:53:14.288Z,6.77
2022-11-26T02:55:42.400Z,5.67
2022-11-26T02:58:09.535Z,6.10
2022-11-26T03:00:37.047Z,6.50
2022-11-26T03:03:09.369Z,6.30
2022-11-26T03:05:36.840Z,7.03
2022-11-26T03:08:04.103Z,7.03
2022-11-26T03:10:31.227Z,6.53
2022-11-26T03:12:58.322Z,6.17
2022-11-26T03:15:25.427Z,7.33
2022-11-26T03:17:52.536Z,6.70
2022-11-26T03:20:19.775Z,6.70
2022-11-26T03:22:47.045Z,6.33
2022-11-26T03:25:14.225Z,6.97
2022-11-26T03:27:41.315Z,5.60
2022-11-26T03:30:08.611Z,5.50
2022-11-26T03:32:35.785Z,6.10
2022-11-26T03:35:02.928Z,6.07
2022-11-26T03:37:30.118Z,5.83
2022-11-26T03:39:57.242Z,6.77
2022-11-26T03:42:24.361Z,5.67
2022-11-26T03:44:51.439Z,5.10
2022-11-26T03:47:18.540Z,5.73
2022-11-26T03:49:45.644Z,5.67
2022-11-26T03:52:13.155Z,5.33
2022-11-26T03:54:40.487Z,6.03
2022-11-26T03:57:07.825Z,6.40
2022-11-26T03:59:34.942Z,6.20
2022-11-26T04:02:02.012Z,5.63
2022-11-26T04:04:29.111Z,5.73
2022-11-26T04:06:56.177Z,5.47
2022-11-26T04:09:23.381Z,6.53
2022-11-26T04:11:50.470Z,5.70
2022-11-26T04:14:17.571Z,5.60
2022-11-26T04:16:44.718Z,5.37
2022-11-26T04:19:11.868Z,5.13
2022-11-26T04:21:38.991Z,6.50
2022-11-26T04:24:06.267Z,5.53
2022-11-26T04:26:33.370Z,5.80
2022-11-26T04:29:00.483Z,5.47
2022-11-26T04:31:27.656Z,5.90
2022-11-26T04:33:54.819Z,5.70
2022-11-26T04:36:21.907Z,5.23
2022-11-26T04:38:48.999Z,4.70
2022-11-26T04:41:16.090Z,6.30
2022-11-26T04:43:43.161Z,5.40
2022-11-26T04:46:10.385Z,6.67
2022-11-26T04:48:37.507Z,5.50
2022-11-26T04:51:04.660Z,5.33
2022-11-26T04:53:31.907Z,5.30
2022-11-26T04:55:59.132Z,5.80
2022-11-26T04:58:28.582Z,6.00
2022-11-26T05:00:55.772Z,5.63
2022-11-26T05:03:23.213Z,5.50
2022-11-26T05:05:50.357Z,5.67
2022-11-26T05:08:17.457Z,4.93
2022-11-26T05:10:44.576Z,5.10
2022-11-26T05:13:11.691Z,5.57
2022-11-26T05:15:38.837Z,5.53
2022-11-26T05:18:07.231Z,5.47
2022-11-26T05:20:36.128Z,5.17
2022-11-26T05:23:05.823Z,5.50
2022-11-26T05:25:32.918Z,5.00
2022-11-26T05:28:00.006Z,4.50
2022-11-26T05:30:27.161Z,5.43
2022-11-26T05:32:54.335Z,5.50
2022-11-26T05:35:21.483Z,5.50
2022-11-26T05:37:48.570Z,5.73
2022-11-26T05:40:15.715Z,4.40
2022-11-26T05:42:43.380Z,5.47
2022-11-26T05:45:10.622Z,5.50
2022-11-26T05:47:37.727Z,4.70
2022-11-26T05:50:05.085Z,5.57
2022-11-26T05:52:32.288Z,5.10
2022-11-26T05:54:59.352Z,5.17
2022-11-26T05:57:26.550Z,4.67
2022-11-26T05:59:53.626Z,5.93
2022-11-26T06:02:21.130Z,5.03
2022-11-26T06:04:48.318Z,5.00
2022-11-26T06:07:15.468Z,5.83
2022-11-26T06:09:42.787Z,4.47
2022-11-26T06:12:09.982Z,5.00
2022-11-26T06:14:41.609Z,5.60
2022-11-26T06:17:10.189Z,4.80
2022-11-26T06:19:37.543Z,5.67
2022-11-26T06:22:04.701Z,5.13
2022-11-26T06:24:31.810Z,5.30
2022-11-26T06:26:58.923Z,5.90
2022-11-26T06:29:28.208Z,7.00
2022-11-26T06:31:58.516Z,6.80
2022-11-26T06:34:25.761Z,7.23
2022-11-26T06:36:52.931Z,7.50
2022-11-26T06:39:20.049Z,7.30
2022-11-26T06:41:47.150Z,6.93
2022-11-26T06:44:14.239Z,7.70
2022-11-26T06:46:41.326Z,7.00
2022-11-26T06:49:08.463Z,7.67
2022-11-26T06:51:35.645Z,8.20
2022-11-26T06:54:05.855Z,6.67
2022-11-26T06:56:35.647Z,7.00
2022-11-26T06:59:02.970Z,6.23
2022-11-26T07:01:30.241Z,6.03
2022-11-26T07:03:57.775Z,7.40
2022-11-26T07:06:25.574Z,7.83
2022-11-26T07:08:53.107Z,10.97
2022-11-26T07:11:20.461Z,12.10
2022-11-26T07:13:47.567Z,9.87
2022-11-26T07:16:14.894Z,7.87
2022-11-26T07:18:42.044Z,8.17
2022-11-26T07:21:10.113Z,7.43
2022-11-26T07:23:37.236Z,6.07
2022-11-26T07:26:04.484Z,9.57
2022-11-26T07:28:31.603Z,18.10
2022-11-26T07:31:02.658Z,11.17
2022-11-26T07:33:30.163Z,18.40
2022-11-26T07:36:02.759Z,21.43
2022-11-26T07:38:29.871Z,8.90
2022-11-26T07:41:01.229Z,18.60
2022-11-26T07:43:28.346Z,7.63
2022-11-26T07:45:55.591Z,7.10
2022-11-26T07:48:22.776Z,10.93
2022-11-26T07:50:49.915Z,12.73
2022-11-26T07:53:17.095Z,12.10
2022-11-26T07:55:44.205Z,9.07
2022-11-26T07:58:11.352Z,8.50
2022-11-26T08:00:38.468Z,8.67
2022-11-26T08:03:05.622Z,7.20
2022-11-26T08:05:32.795Z,6.83
2022-11-26T08:07:59.983Z,6.90
2022-11-26T08:10:27.280Z,6.40
2022-11-26T08:12:54.448Z,6.30
2022-11-26T08:15:21.591Z,6.77
2022-11-26T08:17:48.730Z,7.03
2022-11-26T08:20:15.836Z,7.57
2022-11-26T08:22:42.922Z,7.40
2022-11-26T08:25:10.177Z,5.70
2022-11-26T08:27:37.321Z,6.83
2022-11-26T08:30:04.759Z,5.67
2022-11-26T08:32:31.931Z,5.73
2022-11-26T08:34:59.055Z,9.37
2022-11-26T08:37:26.253Z,11.67
2022-11-26T08:39:53.441Z,8.00
2022-11-26T08:42:20.606Z,7.40
2022-11-26T08:44:47.679Z,11.93
2022-11-26T08:47:14.816Z,10.23
2022-11-26T08:49:41.946Z,7.30
2022-11-26T08:52:09.085Z,7.77
2022-11-26T08:54:37.911Z,7.80
2022-11-26T08:57:07.946Z,7.80
2022-11-26T08:59:35.068Z,9.80
2022-11-26T09:02:02.155Z,8.50
2022-11-26T09:04:29.284Z,9.73
2022-11-26T09:06:56.361Z,9.93
2022-11-26T09:09:23.498Z,5.90
2022-11-26T09:11:54.381Z,7.10
2022-11-26T09:14:22.960Z,6.43
2022-11-26T09:16:52.397Z,7.03
2022-11-26T09:19:19.665Z,7.07
2022-11-26T09:21:46.868Z,6.87
2022-11-26T09:24:14.239Z,6.37
2022-11-26T09:26:41.357Z,6.03
2022-11-26T09:29:08.522Z,5.43
2022-11-26T09:31:35.750Z,6.53
2022-11-26T09:34:03.039Z,6.50
2022-11-26T09:36:30.186Z,4.87
2022-11-26T09:38:57.450Z,6.27
2022-11-26T09:41:54.219Z,5.67
2022-11-26T09:44:33.400Z,6.70
2022-11-26T09:47:12.473Z,8.00
2022-11-26T09:49:52.464Z,6.53
2022-11-26T09:52:20.015Z,6.93
2022-11-26T09:54:47.103Z,4.90
2022-11-26T09:57:34.962Z,5.67
2022-11-26T10:00:18.406Z,5.93
2022-11-26T10:02:45.662Z,5.80
2022-11-26T10:05:15.929Z,5.07
2022-11-26T10:08:08.782Z,8.67
2022-11-26T10:10:43.408Z,5.60
2022-11-26T10:13:19.522Z,14.30
2022-11-26T10:15:53.027Z,32.40
2022-11-26T10:18:23.162Z,7.87
2022-11-26T10:21:04.863Z,6.00
2022-11-26T10:23:41.134Z,5.87
2022-11-26T10:26:10.833Z,5.67
2022-11-26T10:28:44.594Z,5.37
2022-11-26T10:31:24.738Z,5.73
2022-11-26T10:33:51.895Z,6.10
2022-11-26T10:36:21.848Z,5.67
2022-11-26T10:38:48.938Z,5.50
2022-11-26T10:41:16.028Z,7.33
2022-11-26T10:43:43.106Z,7.50
2022-11-26T10:46:10.238Z,8.20
2022-11-26T10:48:37.437Z,6.40
2022-11-26T10:51:17.627Z,6.53
2022-11-26T10:53:52.370Z,6.87
2022-11-26T10:56:20.591Z,6.10
2022-11-26T10:58:47.801Z,6.33
2022-11-26T11:01:15.417Z,14.90
2022-11-26T11:04:07.857Z,6.10
2022-11-26T11:06:36.764Z,6.57
2022-11-26T11:09:19.305Z,7.00
2022-11-26T11:11:46.379Z,6.43
2022-11-26T11:14:17.560Z,7.73
2022-11-26T11:16:46.170Z,6.07
2022-11-26T11:19:22.824Z,6.70
2022-11-26T11:21:49.940Z,6.00
2022-11-26T11:24:27.545Z,5.70
2022-11-26T11:26:58.043Z,7.90
2022-11-26T11:29:26.246Z,6.73
2022-11-26T11:31:53.394Z,8.27
2022-11-26T11:34:21.564Z,6.43
2022-11-26T11:37:01.960Z,8.77
2022-11-26T11:39:30.083Z,9.50
2022-11-26T11:41:57.196Z,7.70
2022-11-26T11:44:25.031Z,6.43
2022-11-26T11:46:52.147Z,16.50
2022-11-26T11:49:22.908Z,19.70
2022-11-26T11:52:22.589Z,13.40
2022-11-26T11:54:56.948Z,8.30
2022-11-26T11:57:28.662Z,7.43
2022-11-26T12:00:10.611Z,7.67
2022-11-26T12:02:44.108Z,10.70
2022-11-26T12:05:14.141Z,8.80
2022-11-26T12:07:48.445Z,31.17
2022-11-26T12:10:17.559Z,6.87
2022-11-26T12:12:48.557Z,10.80
2022-11-26T12:15:34.345Z,6.23
2022-11-26T12:18:03.929Z,5.10
2022-11-26T12:20:39.508Z,5.00
2022-11-26T12:23:25.343Z,6.20
2022-11-26T12:25:57.865Z,6.60
2022-11-26T12:28:28.675Z,7.80
2022-11-26T12:30:56.840Z,7.20
2022-11-26T12:33:28.271Z,7.67
2022-11-26T12:36:04.510Z,6.20
2022-11-26T12:38:32.710Z,6.50
2022-11-26T12:41:04.366Z,5.57
2022-11-26T12:43:40.014Z,5.70
2022-11-26T12:46:09.759Z,5.80
2022-11-26T12:48:52.363Z,6.33
2022-11-26T12:51:22.392Z,5.20
2022-11-26T12:54:15.944Z,5.27
2022-11-26T12:56:46.159Z,5.70
2022-11-26T12:59:22.170Z,6.20
2022-11-26T13:01:49.355Z,7.33
2022-11-26T13:07:09.788Z,5.00
2022-11-26T13:09:49.249Z,5.50
2022-11-26T13:12:22.221Z,5.10
2022-11-26T13:14:56.603Z,5.50
2022-11-26T13:17:52.816Z,5.00
2022-11-26T13:20:31.941Z,5.70
2022-11-26T13:23:02.703Z,5.97
2022-11-26T13:25:48.734Z,5.27
2022-11-26T13:28:34.378Z,5.47
2022-11-26T13:31:20.006Z,6.43
2022-11-26T13:33:50.166Z,25.77
2022-11-26T13:36:20.086Z,73.33
2022-11-26T13:38:54.743Z,8.07
2022-11-26T13:41:40.733Z,21.70
2022-11-26T13:44:12.208Z,6.33
2022-11-26T13:46:41.245Z,70.80
2022-11-26T13:49:08.346Z,51.37
2022-11-26T13:51:38.783Z,34.90
2022-11-26T13:54:19.322Z,6.80
2022-11-26T13:56:46.443Z,5.40
2022-11-26T13:59:16.653Z,6.93
2022-11-26T14:01:43.858Z,6.20
2022-11-26T14:04:31.225Z,6.27
2022-11-26T14:07:04.226Z,5.03
2022-11-26T14:09:46.434Z,4.30
2022-11-26T14:12:17.308Z,4.33
2022-11-26T14:14:46.112Z,4.90
2022-11-26T14:17:17.107Z,4.93
2022-11-26T14:19:44.201Z,8.53
2022-11-26T14:22:20.456Z,10.57
2022-11-26T14:24:50.503Z,5.10
2022-11-26T14:27:21.496Z,5.60
2022-11-26T14:29:50.687Z,5.10
2022-11-26T14:32:18.290Z,5.87
2022-11-26T14:34:50.374Z,6.10
2022-11-26T14:37:24.439Z,5.57
2022-11-26T14:40:05.027Z,5.97
2022-11-26T14:42:32.131Z,4.93
2022-11-26T14:45:02.936Z,4.33
2022-11-26T14:47:30.984Z,5.13
2022-11-26T14:49:59.113Z,5.53
2022-11-26T14:52:36.538Z,4.27
2022-11-26T14:55:04.587Z,5.63
2022-11-26T14:57:41.097Z,4.73
2022-11-26T15:00:14.178Z,5.20
2022-11-26T15:02:42.233Z,5.20
2022-11-26T15:05:15.612Z,4.73
2022-11-26T15:07:42.831Z,3.67
2022-11-26T15:10:15.851Z,4.20
2022-11-26T15:12:43.236Z,4.53
2022-11-26T15:15:12.382Z,4.83
2022-11-26T15:17:39.472Z,5.47
2022-11-26T15:20:07.277Z,4.83
2022-11-26T15:22:37.691Z,4.23
2022-11-26T15:25:05.060Z,4.80
2022-11-26T15:27:39.376Z,4.53
2022-11-26T15:30:16.302Z,4.40
2022-11-26T15:32:43.379Z,4.23
2022-11-26T15:35:13.115Z,4.77
2022-11-26T15:37:40.213Z,4.90
2022-11-26T15:40:08.249Z,6.10
2022-11-26T15:42:35.381Z,5.60
2022-11-26T15:45:02.716Z,4.40
2022-11-26T15:47:29.881Z,4.67
2022-11-26T15:49:58.154Z,5.40
2022-11-26T15:52:26.437Z,4.53
2022-11-26T15:55:12.445Z,4.83
2022-11-26T15:57:43.018Z,4.80
2022-11-26T16:00:23.547Z,5.23
2022-11-26T16:02:52.296Z,6.37
2022-11-26T16:05:23.566Z,5.47
2022-11-26T16:07:57.537Z,5.33
2022-11-26T16:10:26.496Z,5.53
2022-11-26T16:13:12.053Z,5.03
2022-11-26T16:15:49.043Z,7.90
2022-11-26T16:18:19.714Z,7.57
2022-11-26T16:20:46.950Z,7.90
2022-11-26T16:23:21.449Z,8.90
2022-11-26T16:26:08.091Z,10.07
2022-11-26T16:28:35.195Z,9.63
2022-11-26T16:31:02.363Z,8.80
2022-11-26T16:33:29.648Z,10.60
2022-11-26T16:35:56.933Z,9.27
2022-11-26T16:38:25.075Z,14.23
2022-11-26T16:40:52.322Z,10.50
2022-11-26T16:43:19.495Z,9.63
2022-11-26T16:45:47.078Z,9.27
2022-11-26T16:48:18.194Z,10.60
2022-11-26T16:50:45.273Z,9.60
2022-11-26T16:53:12.369Z,8.97
2022-11-26T16:55:39.484Z,11.03
2022-11-26T16:58:06.593Z,13.57
2022-11-26T17:00:33.686Z,11.50
2022-11-26T17:03:00.939Z,11.10
2022-11-26T17:05:28.271Z,11.57
2022-11-26T17:07:56.472Z,9.67
2022-11-26T17:10:26.285Z,9.30
2022-11-26T17:12:53.381Z,10.40
2022-11-26T17:15:20.495Z,9.80
2022-11-26T17:17:47.858Z,8.67
2022-11-26T17:20:16.017Z,9.60
2022-11-26T17:22:45.370Z,9.00
2022-11-26T17:25:12.908Z,7.60
2022-11-26T17:27:40.184Z,8.47
2022-11-26T17:30:07.620Z,7.70
2022-11-26T17:32:34.920Z,7.93
2022-11-26T17:35:02.003Z,8.17
2022-11-26T17:37:29.672Z,8.80
2022-11-26T17:39:57.334Z,9.40
2022-11-26T17:42:24.782Z,9.30
2022-11-26T17:44:52.146Z,9.30
2022-11-26T17:47:20.182Z,9.00
2022-11-26T17:49:47.546Z,10.23
2022-11-26T17:52:15.306Z,11.47
2022-11-26T17:54:42.680Z,11.13
2022-11-26T17:57:13.494Z,10.30
2022-11-26T17:59:40.905Z,8.87
2022-11-26T18:02:08.183Z,9.63
2022-11-26T18:04:35.379Z,8.60
2022-11-26T18:07:09.348Z,8.10
2022-11-26T18:09:36.665Z,7.53
2022-11-26T18:12:03.834Z,8.20
2022-11-26T18:14:31.226Z,7.00
2022-11-26T18:16:58.445Z,7.67
2022-11-26T18:19:25.635Z,7.83
2022-11-26T18:21:52.920Z,7.70
2022-11-26T18:24:20.136Z,7.60
2022-11-26T18:26:47.301Z,8.97
2022-11-26T18:29:14.535Z,8.23
2022-11-26T18:31:42.538Z,7.13
2022-11-26T18:34:09.693Z,7.60
2022-11-26T18:36:36.930Z,7.67
2022-11-26T18:39:05.020Z,7.90
2022-11-26T18:41:32.298Z,8.40
2022-11-26T18:43:59.479Z,8.33
2022-11-26T18:46:26.639Z,8.73
2022-11-26T18:48:57.078Z,8.70
2022-11-26T18:51:24.278Z,9.27
2022-11-26T18:53:51.353Z,11.30
2022-11-26T18:56:19.205Z,11.20
2022-11-26T18:58:46.405Z,13.23
2022-11-26T19:01:16.223Z,12.67
2022-11-26T19:03:44.188Z,12.13
2022-11-26T19:06:12.183Z,12.20
2022-11-26T19:08:40.520Z,11.77
2022-11-26T19:11:08.579Z,11.47
2022-11-26T19:13:36.463Z,11.07
2022-11-26T19:16:09.237Z,12.60
2022-11-26T19:18:40.475Z,13.30
2022-11-26T19:21:07.700Z,13.10
2022-11-26T19:23:34.937Z,14.47
2022-11-26T19:26:07.960Z,14.10
2022-11-26T19:28:35.082Z,16.40
2022-11-26T19:31:06.120Z,15.83
2022-11-26T19:33:33.308Z,18.23
2022-11-26T19:36:03.490Z,20.53
2022-11-26T19:38:30.634Z,22.37
2022-11-26T19:40:58.211Z,20.10
2022-11-26T19:43:26.286Z,22.27
2022-11-26T19:45:53.774Z,21.47
2022-11-26T19:48:20.885Z,22.90
2022-11-26T19:50:54.140Z,25.70
2022-11-26T19:53:21.269Z,23.97
2022-11-26T19:56:02.090Z,22.07
2022-11-26T19:58:29.426Z,23.37
2022-11-26T20:00:56.651Z,22.70
2022-11-26T20:03:23.889Z,22.73
2022-11-26T20:05:51.116Z,25.20
2022-11-26T20:08:18.350Z,25.90
2022-11-26T20:10:49.786Z,24.37
2022-11-26T20:13:17.234Z,24.70
2022-11-26T20:15:48.827Z,24.23
2022-11-26T20:18:15.963Z,24.57
2022-11-26T20:20:43.270Z,22.90
2022-11-26T20:23:10.508Z,30.00
2022-11-26T20:25:37.664Z,27.47
2022-11-26T20:28:05.116Z,26.97
2022-11-26T20:30:32.335Z,28.20
2022-11-26T20:32:59.479Z,24.97
2022-11-26T20:35:31.780Z,26.00
2022-11-26T20:37:58.972Z,25.67
2022-11-26T20:40:26.193Z,24.57
2022-11-26T20:42:53.322Z,23.70
2022-11-26T20:45:22.614Z,19.03
2022-11-26T20:47:49.755Z,21.07
2022-11-26T20:50:16.903Z,20.80
2022-11-26T20:52:44.039Z,21.53
2022-11-26T20:55:11.332Z,18.83
2022-11-26T20:57:38.779Z,18.20
2022-11-26T21:00:06.752Z,17.63
2022-11-26T21:02:34.316Z,17.63
2022-11-26T21:05:01.796Z,16.40
2022-11-26T21:07:31.932Z,15.03
2022-11-26T21:09:59.120Z,14.90
2022-11-26T21:12:26.479Z,16.63
2022-11-26T21:14:53.729Z,17.30
2022-11-26T21:17:20.910Z,19.20
2022-11-26T21:19:48.631Z,18.03
2022-11-26T21:22:16.679Z,19.03
2022-11-26T21:24:44.194Z,20.23
2022-11-26T21:27:11.588Z,19.17
2022-11-26T21:29:38.855Z,19.93
2022-11-26T21:32:06.654Z,19.53
2022-11-26T21:34:33.998Z,18.80
2022-11-26T21:37:01.179Z,19.97
2022-11-26T21:39:28.257Z,19.20
2022-11-26T21:41:55.787Z,19.10
2022-11-26T21:44:22.924Z,20.60
2022-11-26T21:46:50.522Z,22.50
2022-11-26T21:49:17.675Z,25.20
2022-11-26T21:51:44.851Z,23.17
2022-11-26T21:54:12.429Z,23.50
2022-11-26T21:56:40.133Z,24.80
2022-11-26T21:59:07.616Z,29.70
2022-11-26T22:01:35.918Z,30.30
2022-11-26T22:04:04.593Z,29.70
2022-11-26T22:06:32.171Z,29.00
2022-11-26T22:08:59.541Z,30.10
2022-11-26T22:11:27.681Z,29.20
2022-11-26T22:13:57.862Z,28.00
2022-11-26T22:16:27.901Z,28.00
2022-11-26T22:18:56.085Z,26.60
2022-11-26T22:21:26.836Z,26.13
2022-11-26T22:23:53.999Z,24.83
2022-11-26T22:26:21.183Z,25.10
2022-11-26T22:28:49.736Z,22.13
2022-11-26T22:31:27.047Z,23.93
2022-11-26T22:33:55.004Z,22.60
2022-11-26T22:36:22.469Z,24.10
2022-11-26T22:38:49.659Z,24.50
2022-11-26T22:41:16.756Z,37.30
2022-11-26T22:43:43.943Z,31.57
2022-11-26T22:46:14.431Z,26.43
2022-11-26T22:48:41.811Z,24.60
2022-11-26T22:51:09.391Z,24.70
2022-11-26T22:53:36.695Z,25.53
2022-11-26T22:56:04.623Z,25.90
2022-11-26T22:58:34.070Z,25.60
2022-11-26T23:01:02.295Z,38.60
2022-11-26T23:03:29.786Z,37.63
2022-11-26T23:05:56.915Z,30.47
2022-11-26T23:08:24.001Z,28.03
2022-11-26T23:10:51.086Z,26.40
2022-11-26T23:13:20.227Z,25.30
2022-11-26T23:15:48.950Z,25.23
2022-11-26T23:18:16.233Z,27.67
2022-11-26T23:20:43.535Z,36.93
2022-11-26T23:23:10.746Z,28.90
2022-11-26T23:25:38.521Z,29.60
2022-11-26T23:28:06.602Z,31.70
2022-11-26T23:30:33.759Z,30.30
2022-11-26T23:33:00.889Z,29.57
2022-11-26T23:35:28.098Z,31.40
2022-11-26T23:37:55.198Z,31.13
2022-11-26T23:40:22.290Z,29.47
2022-11-26T23:42:49.351Z,28.37
2022-11-26T23:45:16.496Z,29.57
2022-11-26T23:47:43.603Z,30.80
2022-11-26T23:50:10.812Z,29.97
2022-11-26T23:52:38.076Z,32.33
2022-11-26T23:55:05.468Z,36.47
2022-11-26T23:57:32.653Z,35.47
2022-11-26T23:59:59.736Z,36.47
